createdAt,value
2019-04-22T00:00:36.159Z,53.05
2019-04-22T00:03:07.496Z,54.32
2019-04-22T00:05:55.152Z,55.44
2019-04-22T00:08:36.159Z,55.65
2019-04-22T00:11:14.433Z,56.26
2019-04-22T00:13:49.190Z,56.54
2019-04-22T00:16:19.157Z,57.08
2019-04-22T00:19:00.990Z,57.42
2019-04-22T00:21:25.749Z,57.22
2019-04-22T00:23:57.887Z,57.68
2019-04-22T00:26:30.925Z,58.20
2019-04-22T00:29:21.052Z,58.17
2019-04-22T00:31:33.228Z,58.65
2019-04-22T00:34:14.456Z,58.68
2019-04-22T00:36:45.168Z,59.44
2019-04-22T00:39:21.993Z,60.06
2019-04-22T00:41:48.727Z,59.95
2019-04-22T00:44:26.054Z,59.92
2019-04-22T00:47:02.865Z,60.98
2019-04-22T00:52:03.507Z,60.72
2019-04-22T00:54:37.960Z,61.11
2019-04-22T00:57:06.437Z,61.42
2019-04-22T00:59:42.138Z,62.01
2019-04-22T01:02:18.141Z,62.34
2019-04-22T01:04:49.029Z,62.39
2019-04-22T01:07:17.553Z,63.08
2019-04-22T01:12:28.296Z,64.31
2019-04-22T01:15:05.777Z,64.45
2019-04-22T01:17:36.370Z,64.36
2019-04-22T01:20:45.679Z,64.24
2019-04-22T01:22:33.041Z,64.16
2019-04-22T01:25:08.005Z,64.45
2019-04-22T01:27:39.311Z,64.66
2019-04-22T01:30:09.491Z,65.04
2019-04-22T01:32:37.384Z,65.03
2019-04-22T01:35:19.718Z,65.62
2019-04-22T01:37:54.203Z,65.83
2019-04-22T01:40:39.061Z,66.08
2019-04-22T01:43:14.757Z,66.63
2019-04-22T01:45:39.518Z,67.15
2019-04-22T01:48:10.923Z,67.68
2019-04-22T01:50:43.105Z,67.75
2019-04-22T01:53:23.581Z,67.77
2019-04-22T01:55:50.002Z,67.77
2019-04-22T01:58:18.405Z,67.82
2019-04-22T02:01:13.629Z,67.75
2019-04-22T02:03:33.214Z,67.79
2019-04-22T02:06:05.806Z,67.79
2019-04-22T02:11:17.352Z,67.38
2019-04-22T02:13:42.823Z,67.40
2019-04-22T02:16:14.183Z,67.73
2019-04-22T02:18:44.931Z,68.18
2019-04-22T02:21:13.690Z,68.48
2019-04-22T02:24:05.204Z,68.56
2019-04-22T02:26:25.572Z,68.91
2019-04-22T02:28:55.212Z,69.35
2019-04-22T02:34:24.069Z,69.75
2019-04-22T02:36:36.487Z,69.96
2019-04-22T02:39:12.925Z,69.96
2019-04-22T02:49:25.075Z,70.99
2019-04-22T02:52:13.171Z,71.39
2019-04-22T02:57:07.246Z,71.88
2019-04-22T02:59:34.467Z,71.84
2019-04-22T03:02:03.171Z,71.29
2019-04-22T03:04:37.460Z,71.43
2019-04-22T03:07:05.461Z,71.45
2019-04-22T03:09:42.432Z,71.35
2019-04-22T03:12:21.939Z,71.55
2019-04-22T03:17:25.589Z,71.42
2019-04-22T03:22:24.212Z,71.25
2019-04-22T03:27:31.806Z,71.82
2019-04-22T03:40:40.470Z,71.53
2019-04-22T03:42:57.770Z,71.27
2019-04-22T03:47:57.412Z,71.49
2019-04-22T03:55:38.392Z,71.72
2019-04-22T03:57:59.262Z,71.76
2019-04-22T04:00:55.846Z,71.94
2019-04-22T04:05:52.576Z,72.26
2019-04-22T04:08:19.721Z,72.34
2019-04-22T04:10:50.146Z,72.27
2019-04-22T04:16:10.508Z,71.80
2019-04-22T04:18:44.590Z,71.88
2019-04-22T04:23:57.264Z,71.13
2019-04-22T04:26:35.309Z,70.50
2019-04-22T04:28:50.376Z,70.16
2019-04-22T04:33:51.189Z,69.92
2019-04-22T04:36:34.190Z,69.75
2019-04-22T04:38:58.216Z,69.24
2019-04-22T04:41:33.809Z,69.04
2019-04-22T04:46:51.557Z,67.86
2019-04-22T04:49:07.542Z,67.92
2019-04-22T04:56:44.475Z,68.37
2019-04-22T05:04:37.256Z,67.62
2019-04-22T05:07:00.025Z,67.50
2019-04-22T05:09:21.470Z,67.38
2019-04-22T05:12:03.481Z,66.77
2019-04-22T05:14:24.889Z,66.54
2019-04-22T05:17:02.380Z,66.08
2019-04-22T05:24:34.722Z,64.94
2019-04-22T05:27:13.328Z,65.26
2019-04-22T05:32:17.539Z,63.36
2019-04-22T05:34:48.824Z,62.85
2019-04-22T05:37:24.090Z,63.33
2019-04-22T05:39:49.573Z,62.33
2019-04-22T05:42:20.291Z,62.46
2019-04-22T05:44:55.198Z,61.61
2019-04-22T05:47:28.840Z,61.76
2019-04-22T05:49:54.615Z,62.24
2019-04-22T05:52:31.641Z,61.16
2019-04-22T05:55:08.721Z,61.34
2019-04-22T05:57:38.916Z,61.16
2019-04-22T06:00:17.988Z,60.90
2019-04-22T06:02:53.082Z,60.26
2019-04-22T06:05:17.289Z,60.83
2019-04-22T06:07:47.225Z,59.63
2019-04-22T06:10:28.727Z,59.62
2019-04-22T06:12:56.518Z,58.69
2019-04-22T06:15:31.626Z,59.09
2019-04-22T06:18:16.106Z,59.67
2019-04-22T06:20:49.773Z,59.48
2019-04-22T06:23:21.520Z,59.33
2019-04-22T06:28:31.558Z,59.53
2019-04-22T06:30:57.417Z,59.34
2019-04-22T06:33:26.141Z,59.34
2019-04-22T06:36:01.960Z,58.84
2019-04-22T06:41:13.728Z,60.10
2019-04-22T06:43:47.533Z,59.19
2019-04-22T06:46:16.928Z,59.47
2019-04-22T06:48:47.893Z,59.29
2019-04-22T06:51:24.539Z,59.41
2019-04-22T06:53:56.628Z,58.92
2019-04-22T06:56:21.877Z,58.12
2019-04-22T06:58:59.035Z,58.18
2019-04-22T07:01:37.158Z,57.83
2019-04-22T07:04:08.028Z,52.05
2019-04-22T07:06:41.869Z,48.83
2019-04-22T07:09:30.146Z,46.62
2019-04-22T07:11:43.174Z,46.48
2019-04-22T07:14:12.309Z,46.36
2019-04-22T07:16:54.504Z,47.78
2019-04-22T07:19:24.977Z,48.31
2019-04-22T07:21:50.413Z,46.54
2019-04-22T07:24:41.351Z,47.65
2019-04-22T07:26:57.599Z,48.27
2019-04-22T07:29:32.787Z,47.61
2019-04-22T07:32:29.353Z,47.27
2019-04-22T07:34:44.546Z,47.63
2019-04-22T07:37:31.359Z,47.49
2019-04-22T07:42:18.788Z,45.87
2019-04-22T07:44:53.162Z,45.87
2019-04-22T07:47:29.686Z,51.40
2019-04-22T07:50:03.976Z,50.34
2019-04-22T07:52:31.994Z,50.34
2019-04-22T07:54:59.628Z,52.45
2019-04-22T08:00:11.151Z,48.92
2019-04-22T08:02:47.916Z,48.27
2019-04-22T08:07:43.110Z,44.12
2019-04-22T08:10:23.878Z,41.90
2019-04-22T08:12:50.760Z,43.89
2019-04-22T08:15:27.566Z,44.29
2019-04-22T08:20:33.637Z,48.42
2019-04-22T08:23:11.743Z,49.97
2019-04-22T08:25:43.142Z,51.33
2019-04-22T08:28:17.866Z,51.04
2019-04-22T08:30:48.948Z,51.98
2019-04-22T08:33:21.616Z,49.80
2019-04-22T08:38:50.721Z,49.03
2019-04-22T08:41:17.867Z,50.89
2019-04-22T08:43:55.381Z,50.99
2019-04-22T08:46:23.514Z,50.92
2019-04-22T08:51:28.219Z,52.86
2019-04-22T08:53:59.875Z,51.63
2019-04-22T08:56:34.693Z,51.61
2019-04-22T08:59:10.965Z,52.41
2019-04-22T09:01:32.756Z,52.06
2019-04-22T09:04:09.948Z,50.98
2019-04-22T09:07:06.049Z,52.74
2019-04-22T09:09:19.617Z,52.68
2019-04-22T09:11:57.185Z,51.94
2019-04-22T09:14:26.440Z,52.11
2019-04-22T09:17:05.986Z,51.69
2019-04-22T09:19:30.219Z,50.01
2019-04-22T09:22:08.248Z,50.16
2019-04-22T09:24:35.685Z,48.48
2019-04-22T09:27:15.924Z,49.71
2019-04-22T09:29:41.257Z,49.77
2019-04-22T09:34:46.961Z,51.17
2019-04-22T09:39:59.837Z,49.94
2019-04-22T09:42:25.889Z,49.57
2019-04-22T09:44:51.809Z,48.72
2019-04-22T09:47:33.853Z,46.13
2019-04-22T09:52:35.888Z,44.63
2019-04-22T09:55:15.509Z,44.53
2019-04-22T09:57:52.334Z,43.08
2019-04-22T10:00:16.874Z,41.94
2019-04-22T10:02:59.239Z,38.23
2019-04-22T10:05:28.125Z,35.78
2019-04-22T10:07:59.588Z,35.69
2019-04-22T10:10:35.156Z,36.04
2019-04-22T10:13:06.079Z,35.49
2019-04-22T10:15:45.491Z,39.28
2019-04-22T10:18:09.824Z,41.04
2019-04-22T10:20:45.867Z,41.14
2019-04-22T10:23:22.627Z,39.41
2019-04-22T10:25:53.719Z,38.51
2019-04-22T10:28:26.985Z,40.65
2019-04-22T10:31:14.501Z,41.98
2019-04-22T10:33:23.944Z,41.79
2019-04-22T10:35:34.951Z,44.41
2019-04-22T10:38:06.119Z,41.40
2019-04-22T10:40:38.756Z,38.35
2019-04-22T10:43:11.573Z,36.96
2019-04-22T10:45:44.021Z,36.37
2019-04-22T10:48:16.364Z,37.89
2019-04-22T10:50:48.735Z,37.89
2019-04-22T10:53:21.670Z,38.59
2019-04-22T10:55:54.369Z,38.25
2019-04-22T10:58:26.667Z,39.23
2019-04-22T11:01:00.200Z,39.91
2019-04-22T11:03:35.191Z,38.80
2019-04-22T11:06:05.598Z,38.80
2019-04-22T11:08:43.327Z,39.77
2019-04-22T11:11:26.007Z,39.13
2019-04-22T11:13:45.891Z,38.23
2019-04-22T11:16:19.432Z,38.10
2019-04-22T11:18:51.805Z,38.51
2019-04-22T11:21:23.297Z,38.25
2019-04-22T11:23:56.519Z,36.66
2019-04-22T11:26:30.204Z,36.56
2019-04-22T11:29:03.497Z,37.71
2019-04-22T11:31:36.466Z,38.26
2019-04-22T11:34:08.921Z,37.00
2019-04-22T11:36:42.903Z,36.65
2019-04-22T11:39:16.876Z,37.68
2019-04-22T11:41:46.620Z,36.67
2019-04-22T11:44:17.463Z,36.77
2019-04-22T11:46:49.519Z,34.93
2019-04-22T11:49:21.756Z,32.95
2019-04-22T11:51:54.225Z,36.12
2019-04-22T11:54:25.233Z,39.14
2019-04-22T11:56:56.826Z,37.09
2019-04-22T11:59:29.033Z,36.16
2019-04-22T12:02:04.684Z,38.49
2019-04-22T12:04:35.988Z,37.67
2019-04-22T12:07:08.815Z,37.61
2019-04-22T12:09:39.643Z,38.90
2019-04-22T12:12:11.926Z,38.06
2019-04-22T12:14:43.203Z,38.38
2019-04-22T12:17:16.009Z,37.75
2019-04-22T12:19:48.623Z,39.19
2019-04-22T12:22:20.885Z,36.75
2019-04-22T12:24:52.451Z,36.85
2019-04-22T12:27:24.872Z,37.49
2019-04-22T12:29:56.818Z,35.98
2019-04-22T12:32:27.777Z,34.58
2019-04-22T12:35:01.732Z,34.25
2019-04-22T12:37:40.658Z,34.06
2019-04-22T12:40:08.843Z,34.94
2019-04-22T12:42:39.713Z,33.94
2019-04-22T12:45:12.231Z,36.58
2019-04-22T12:47:44.127Z,37.92
2019-04-22T12:50:24.085Z,36.56
2019-04-22T12:52:58.942Z,35.93
2019-04-22T12:55:24.134Z,36.79
2019-04-22T12:57:58.892Z,37.42
2019-04-22T13:00:30.123Z,37.64
2019-04-22T13:03:01.230Z,37.55
2019-04-22T13:05:33.396Z,35.12
2019-04-22T13:08:05.630Z,36.12
2019-04-22T13:10:45.432Z,37.27
2019-04-22T13:13:11.295Z,37.03
2019-04-22T13:15:44.517Z,35.95
2019-04-22T13:18:27.684Z,36.80
2019-04-22T13:20:50.712Z,37.09
2019-04-22T13:23:25.560Z,37.49
2019-04-22T13:25:59.057Z,37.57
2019-04-22T13:28:31.484Z,36.79
2019-04-22T13:31:03.783Z,35.57
2019-04-22T13:33:34.790Z,35.58
2019-04-22T13:36:06.108Z,35.58
2019-04-22T13:38:38.401Z,35.86
2019-04-22T13:41:21.287Z,36.99
2019-04-22T13:43:43.049Z,36.50
2019-04-22T13:46:14.504Z,35.98
2019-04-22T13:49:10.667Z,35.52
2019-04-22T13:52:15.041Z,34.74
2019-04-22T13:56:50.564Z,35.92
2019-04-22T13:59:09.054Z,36.10
2019-04-22T14:01:52.648Z,35.76
2019-04-22T14:04:26.067Z,36.50
2019-04-22T14:07:03.066Z,36.23
2019-04-22T14:09:36.075Z,36.71
2019-04-22T14:12:10.284Z,35.60
2019-04-22T14:15:00.210Z,35.72
2019-04-22T14:17:32.779Z,35.58
2019-04-22T14:20:10.922Z,34.93
2019-04-22T14:22:44.298Z,33.66
2019-04-22T14:25:16.616Z,34.21
2019-04-22T14:27:56.567Z,34.45
2019-04-22T14:30:24.273Z,34.97
2019-04-22T14:32:56.000Z,34.99
2019-04-22T14:35:27.144Z,36.50
2019-04-22T14:37:58.331Z,36.80
2019-04-22T14:40:32.421Z,37.21
2019-04-22T14:44:49.467Z,37.49
2019-04-22T14:48:40.457Z,37.14
2019-04-22T14:51:05.275Z,37.49
2019-04-22T14:53:40.469Z,37.07
2019-04-22T14:55:48.571Z,37.12
2019-04-22T14:58:19.386Z,36.49
2019-04-22T15:00:51.939Z,36.46
2019-04-22T15:03:23.833Z,36.40
2019-04-22T15:05:55.484Z,35.53
2019-04-22T15:08:27.030Z,36.59
2019-04-22T15:10:58.299Z,35.92
2019-04-22T15:13:29.484Z,36.52
2019-04-22T15:16:03.209Z,36.18
2019-04-22T15:18:37.699Z,36.53
2019-04-22T15:21:14.402Z,35.88
2019-04-22T15:23:46.584Z,36.48
2019-04-22T15:26:17.899Z,36.14
2019-04-22T15:28:49.384Z,36.30
2019-04-22T15:31:21.524Z,36.41
2019-04-22T15:33:54.363Z,36.13
2019-04-22T15:36:26.235Z,36.17
2019-04-22T15:38:57.593Z,36.01
2019-04-22T15:41:30.536Z,35.27
2019-04-22T15:44:03.619Z,35.49
2019-04-22T15:46:37.119Z,35.32
2019-04-22T15:49:09.888Z,35.58
2019-04-22T15:51:42.898Z,36.17
2019-04-22T15:54:16.089Z,36.67
2019-04-22T15:56:48.863Z,37.17
2019-04-22T15:59:38.863Z,37.36
2019-04-22T16:02:00.084Z,36.99
2019-04-22T16:04:28.531Z,37.07
2019-04-22T16:07:01.200Z,36.68
2019-04-22T16:09:33.293Z,36.04
2019-04-22T16:12:16.148Z,36.33
2019-04-22T16:14:41.883Z,36.29
2019-04-22T16:17:10.590Z,36.22
2019-04-22T16:19:43.271Z,35.99
2019-04-22T16:22:19.052Z,35.22
2019-04-22T16:24:52.176Z,35.40
2019-04-22T16:27:27.298Z,36.07
2019-04-22T16:30:01.317Z,36.36
2019-04-22T16:32:34.654Z,35.67
2019-04-22T16:35:08.517Z,36.86
2019-04-22T16:37:41.066Z,36.92
2019-04-22T16:40:16.598Z,36.59
2019-04-22T16:42:58.304Z,37.17
2019-04-22T16:45:27.366Z,37.29
2019-04-22T16:48:02.153Z,38.07
2019-04-22T16:50:35.030Z,38.17
2019-04-22T16:53:08.286Z,38.27
2019-04-22T16:55:42.672Z,38.81
2019-04-22T16:58:15.030Z,39.06
2019-04-22T17:00:47.164Z,39.20
2019-04-22T17:03:22.505Z,39.32
2019-04-22T17:06:12.138Z,38.98
2019-04-22T17:08:44.946Z,38.80
2019-04-22T17:11:16.179Z,38.61
2019-04-22T17:13:48.110Z,37.98
2019-04-22T17:16:24.188Z,38.13
2019-04-22T17:18:58.403Z,38.21
2019-04-22T17:21:32.019Z,38.12
2019-04-22T17:24:03.963Z,38.24
2019-04-22T17:26:38.808Z,38.64
2019-04-22T17:29:12.358Z,38.69
2019-04-22T17:31:50.948Z,39.21
2019-04-22T17:34:23.438Z,39.79
2019-04-22T17:36:57.514Z,40.04
2019-04-22T17:39:43.315Z,40.11
2019-04-22T17:42:25.366Z,40.21
2019-04-22T17:45:17.601Z,40.37
2019-04-22T17:48:09.807Z,40.48
2019-04-22T17:50:50.931Z,40.71
2019-04-22T17:53:41.724Z,40.42
2019-04-22T17:55:57.484Z,40.84
2019-04-22T17:58:38.179Z,41.06
2019-04-22T18:01:02.765Z,41.13
2019-04-22T18:03:25.811Z,41.41
2019-04-22T18:05:57.440Z,41.62
2019-04-22T18:08:40.784Z,41.76
2019-04-22T18:11:24.402Z,42.38
2019-04-22T18:13:51.917Z,42.52
2019-04-22T18:16:27.628Z,42.45
2019-04-22T18:19:01.131Z,42.47
2019-04-22T18:21:28.908Z,42.82
2019-04-22T18:23:56.530Z,43.06
2019-04-22T18:26:38.939Z,42.86
2019-04-22T18:29:14.478Z,42.96
2019-04-22T18:31:38.544Z,43.19
2019-04-22T18:34:10.239Z,43.23
2019-04-22T18:36:45.640Z,43.75
2019-04-22T18:39:29.930Z,43.83
2019-04-22T18:42:01.795Z,44.21
2019-04-22T18:44:39.864Z,44.21
2019-04-22T18:47:10.699Z,44.12
2019-04-22T18:49:42.796Z,44.69
2019-04-22T18:52:38.669Z,44.69
2019-04-22T18:55:17.976Z,44.76
2019-04-22T18:58:01.774Z,44.84
2019-04-22T19:00:23.563Z,45.00
2019-04-22T19:03:05.358Z,45.16
2019-04-22T19:05:46.795Z,45.48
2019-04-22T19:11:02.503Z,45.72
2019-04-22T19:16:19.597Z,45.75
2019-04-22T19:19:07.711Z,45.81
2019-04-22T19:21:13.253Z,46.52
2019-04-22T19:23:46.555Z,46.32
2019-04-22T19:26:30.359Z,46.40
2019-04-22T19:28:49.841Z,45.94
2019-04-22T19:31:24.656Z,46.20
2019-04-22T19:34:01.564Z,46.58
2019-04-22T19:36:35.601Z,46.62
2019-04-22T19:39:02.916Z,45.82
2019-04-22T19:41:36.382Z,46.50
2019-04-22T19:44:10.305Z,46.69
2019-04-22T19:46:44.772Z,46.84
2019-04-22T19:49:24.569Z,47.12
2019-04-22T19:51:58.422Z,47.00
2019-04-22T19:54:26.294Z,47.01
2019-04-22T19:56:48.555Z,46.97
2019-04-22T19:59:23.885Z,47.04
2019-04-22T20:02:00.676Z,46.57
2019-04-22T20:04:46.111Z,46.88
2019-04-22T20:07:12.600Z,46.99
2019-04-22T20:09:48.711Z,47.34
2019-04-22T20:12:18.976Z,47.63
2019-04-22T20:14:49.728Z,47.94
2019-04-22T20:17:28.593Z,47.55
2019-04-22T20:20:06.514Z,47.65
2019-04-22T20:22:30.317Z,47.62
2019-04-22T20:24:53.810Z,47.26
2019-04-22T20:27:42.674Z,47.73
2019-04-22T20:30:14.337Z,47.47
2019-04-22T20:32:41.397Z,47.89
2019-04-22T20:35:24.518Z,48.06
2019-04-22T20:37:54.955Z,48.17
2019-04-22T20:40:31.169Z,48.26
2019-04-22T20:43:00.138Z,48.61
2019-04-22T20:45:37.771Z,48.41
2019-04-22T20:47:58.701Z,48.26
2019-04-22T20:50:43.624Z,48.58
2019-04-22T20:53:19.987Z,48.87
2019-04-22T20:55:55.228Z,48.87
2019-04-22T20:58:23.296Z,49.18
2019-04-22T21:00:50.555Z,49.12
2019-04-22T21:03:20.890Z,49.14
2019-04-22T21:05:52.830Z,49.83
2019-04-22T21:08:40.362Z,49.68
2019-04-22T21:11:04.484Z,49.59
2019-04-22T21:13:33.025Z,49.63
2019-04-22T21:16:16.517Z,49.34
2019-04-22T21:18:43.919Z,49.19
2019-04-22T21:21:19.926Z,49.19
2019-04-22T21:23:45.821Z,49.27
2019-04-22T21:26:29.104Z,48.69
2019-04-22T21:28:58.431Z,48.73
2019-04-22T21:31:51.378Z,48.41
2019-04-22T21:34:05.108Z,48.41
2019-04-22T21:36:41.470Z,48.48
2019-04-22T21:39:12.590Z,48.32
2019-04-22T21:41:46.429Z,48.53
2019-04-22T21:44:18.397Z,48.35
2019-04-22T21:47:09.006Z,48.43
2019-04-22T21:49:29.807Z,48.54
2019-04-22T21:51:58.379Z,49.18
2019-04-22T21:54:42.476Z,49.15
2019-04-22T21:57:21.316Z,49.27
2019-04-22T21:59:38.456Z,49.43
2019-04-22T22:02:28.093Z,48.93
2019-04-22T22:04:52.763Z,48.94
2019-04-22T22:07:14.361Z,49.21
2019-04-22T22:10:01.384Z,49.26
2019-04-22T22:12:37.848Z,48.85
2019-04-22T22:15:09.774Z,48.66
2019-04-22T22:17:38.280Z,48.99
2019-04-22T22:20:13.503Z,49.07
2019-04-22T22:22:53.735Z,49.02
2019-04-22T22:25:23.955Z,49.42
2019-04-22T22:27:53.321Z,49.57
2019-04-22T22:33:05.915Z,49.27
2019-04-22T22:35:38.958Z,49.84
2019-04-22T22:38:09.464Z,50.22
2019-04-22T22:40:27.697Z,50.25
2019-04-22T22:42:59.407Z,50.37
2019-04-22T22:45:39.724Z,50.36
2019-04-22T22:48:32.230Z,50.82
2019-04-22T22:50:50.892Z,50.52
2019-04-22T22:53:40.411Z,50.65
2019-04-22T22:56:07.525Z,50.48
2019-04-22T22:58:34.047Z,51.03
2019-04-22T23:01:04.789Z,51.10
2019-04-22T23:03:51.467Z,50.61
2019-04-22T23:06:24.591Z,50.76
2019-04-22T23:08:54.049Z,51.06
2019-04-22T23:11:43.481Z,51.10
2019-04-22T23:14:00.052Z,51.58
2019-04-22T23:16:18.154Z,51.60
2019-04-22T23:18:57.598Z,51.46
2019-04-22T23:21:35.187Z,51.54
2019-04-22T23:24:21.516Z,51.79
2019-04-22T23:27:00.231Z,51.60
2019-04-22T23:29:26.896Z,51.54
2019-04-22T23:32:08.809Z,51.71
2019-04-22T23:34:49.809Z,51.54
2019-04-22T23:37:21.705Z,51.29
2019-04-22T23:39:58.412Z,50.85
2019-04-22T23:42:27.358Z,50.97
2019-04-22T23:45:03.600Z,51.11
2019-04-22T23:47:31.154Z,51.18
2019-04-22T23:50:14.764Z,51.03
2019-04-22T23:52:50.849Z,51.26
2019-04-22T23:55:20.597Z,50.67
2019-04-22T23:57:58.429Z,50.62
